Weather observations for the past three days for
Rome State Airport
Imperial (Metric)
Date Time (mdt) Wind (mph) Vis. (mi.) Weather Sky Cond. Temperature (ºF) Relative Humidity Wind Chill (°F) Heat Index (°F) Pressure Precipitation (in)
Air Dwpt 6 hour altimeter (in) sea level (mb) 1 hr 3 hr 6 hr
Max. Min.
04 00:52 W 3 0.00 NULL NULL 46 21.9 38% 29.83 1007.9
03 23:52 W 6 0.00 NULL NULL 50 21 79 46.9 32% 48 29.84 1008.0
03 22:52 E 7 0.00 NULL NULL 51.1 21.9 32% 29.85 1008.6
03 21:52 E 9 0.00 NULL NULL 55.9 21 26% 29.84 1008.3
03 20:52 NE 8 0.00 NULL NULL 68 19 15% 29.82 1007.2
03 19:52 NE 14 0.00 NULL NULL 73.9 19.9 13% 29.81 1007.2
03 18:52 N 17 G 28 0.00 NULL NULL 75.9 21 13% 76 29.82 1007.8
03 17:52 N 15 G 26 0.00 NULL NULL 79 21.9 80.1 70 12% 77 29.82 1007.7
03 16:52 N 13 G 25 0.00 NULL NULL 80.1 23 12% 78 29.84 1007.8
03 15:52 N 14 G 32 0.00 NULL NULL 79 24.1 13% 78 29.85 1008.5
03 14:52 NE 13 G 20 0.00 NULL NULL 78.1 24.1 13% 77 29.88 1009.0
03 13:52 NE 12 G 21 0.00 NULL NULL 77 21.9 13% 76 29.91 1010.2
03 12:52 NE 12 G 18 0.00 NULL NULL 73.9 23 15% 29.94 1011.1
03 11:52 N 7 0.00 NULL NULL 71.1 27 71.1 35.1 19% 29.96 1011.7
03 10:52 N 5 0.00 NULL NULL 64.9 28.9 26% 29.98 1012.7
03 09:52 N 7 0.00 NULL NULL 60.1 30 32% 29.99 1013.1
03 08:52 Calm 0.00 NULL NULL 55 28.9 37% 29.99 1013.2
03 07:52 S 3 0.00 NULL NULL 46 30 54% 29.99 1013.4
03 06:52 Calm 0.00 NULL NULL 37 26.1 65% 29.98 1013.7
03 04:52 S 6 0.00 NULL NULL 41 27 57% 38 29.99 1013.6
03 03:52 S 10 0.00 NULL NULL 43 27 53% 38 29.99 1013.4
03 02:52 SE 9 0.00 NULL NULL 48.9 27 43% 45 29.99 1012.9
03 01:52 S 7 0.00 NULL NULL 48 26.1 42% 45 30 1013.3
03 00:52 S 5 0.00 NULL NULL 52 30 43% 29.99 1012.8
02 23:52 NE 6 0.00 NULL NULL 57 28.9 75 57 34% 29.98 1012.5
02 22:52 N 8 0.00 NULL NULL 57 23 27% 29.97 1012.5
02 21:52 N 9 0.00 NULL NULL 64 23 21% 29.95 1012.0
02 20:52 NE 3 0.00 NULL NULL 66.9 21 17% 29.92 1011.3
02 18:52 W 10 G 22 0.00 NULL NULL 73.9 19.9 13% 29.92 1011.5
02 17:52 SE 10 G 17 0.00 NULL NULL 75 19 79 69.1 12% 75 29.91 1011.3
02 16:52 Vrbl 5 0.00 NULL NULL 75.9 17.1 11% 75 29.92 1010.9
02 15:52 S 7 0.00 NULL NULL 75.9 17.1 11% 75 29.93 1010.7
02 14:52 Vrbl 6 0.00 NULL NULL 75.9 17.1 11% 75 29.95 1010.9
02 13:52 Calm 0.00 NULL NULL 75 17.1 11% 75 29.97 1011.4
02 12:52 Vrbl 5 0.00 NULL NULL 73 18 12% 29.98 1012.4
02 11:52 Calm 0.00 NULL NULL 68 18 69.1 35.1 15% 30 1013.6
02 10:52 NE 3 0.00 NULL NULL 64.9 23 20% 30.01 1013.5
02 09:52 Calm 0.00 NULL NULL 55.9 21.9 27% 30.02 1014.5
02 08:52 SW 3 0.00 NULL NULL 50 21 32% 30.02 1014.9
02 07:52 Calm 0.00 NULL NULL 44.1 21 40% 30.01 1014.6
02 06:52 S 7 0.00 NULL NULL 36 18 48% 31 30.01 1014.7
02 05:52 W 5 0.00 NULL NULL 37 18 61 37 46% 34 30.01 1014.6
02 04:52 NE 8 0.00 NULL NULL 44.1 19 37% 40 30.01 1014.3
02 03:52 W 5 0.00 NULL NULL 54 17.1 23% 30.01 1013.4
02 02:52 S 14 0.00 NULL NULL 57.9 17.1 20% 30.01 1013.3
02 01:52 SE 18 G 28 0.00 NULL NULL 60.1 17.1 19% 30.02 1013.6
02 00:52 S 14 G 18 0.00 NULL NULL 57 18 22% 30.02 1014.0
01 23:52 N 9 0.00 NULL NULL 53.1 25 75 53.1 34% 30.03 1014.6
01 22:52 SE 8 0.00 NULL NULL 62.1 16 17% 30.01 1014.0
01 21:52 SE 9 0.00 NULL NULL 62.1 15.1 16% 30 1014.0
01 20:52 E 8 0.00 NULL NULL 61 16 17% 29.99 1014.0
01 19:52 E 9 0.00 NULL NULL 69.1 15.1 12% 29.99 1013.9
01 18:52 E 5 0.00 NULL NULL 73 16 11% 30 1014.7
01 17:52 SE 7 0.00 NULL NULL 73.9 17.1 75.9 64.9 11% 30.01 1014.9
01 16:52 Calm 0.00 NULL NULL 73.9 18 12% 30.02 1015.1
01 15:52 SE 9 G 21 0.00 NULL NULL 73 16 11% 30.05 1016.3
01 14:52 Calm 0.00 NULL NULL 71.1 15.1 12% 30.07 1016.9
01 13:52 Calm 0.00 NULL NULL 70 17.1 13% 30.09 1017.5
01 12:52 Vrbl 6 0.00 NULL NULL 68 19 15% 30.11 1017.7
01 11:52 Vrbl 5 0.00 NULL NULL 66 26.1 66 30 22% 30.13 1018.5
01 10:52 N 5 0.00 NULL NULL 60.1 28.9 31% 30.14 1019.6
01 09:52 NE 5 0.00 NULL NULL 55.9 28.9 36% 30.15 1019.5
01 08:52 Calm 0.00 NULL NULL 48.9 28 44% 30.15 1019.6
01 07:52 S 3 0.00 NULL NULL 42.1 28 58% 30.14 1019.4
01 06:52 S 6 0.00 NULL NULL 30.9 24.1 76% 26 30.13 1019.8
01 05:52 Calm 0.00 NULL NULL 32 24.1 48 32 73% 30.12 1019.7
01 04:52 SE 3 0.00 NULL NULL 35.1 24.1 64% 30.13 1019.3
01 02:52 Calm 0.00 NULL NULL 39 26.1 60% 30.13 1019.2
01 01:52 Calm 0.00 NULL NULL 39.9 27 60% 30.13 1019.1
Date Time (mdt) Wind (mph) Vis. (mi.) Weather Sky Cond. Air Dwpt Max. Min. Relative Humidity Wind Chill (°F) Heat Index (°F) altimeter (in) sea level (mb) 1 hr 3 hr 6 hr
6 hour
Temperature (ºF) Pressure Precipitation (in)